Предлагаем Вашему вниманию английскую версию страницы: AUTOTAF.ME UUYY - aviation weather forecast Syktyvkar

AUTOTAF UUYY - авиапрогноз Сыктывкар

Сегодня рассвет 04:34 UTC, восход солнца 05:29 UTC,
местный полдень 08:47 UTC, заход солнца 12:05 UTC,
наступление темноты 13:00 UTC.

Краткий прогноз UUYY на 9 часов

AUTOTAF.ME UUYY 190800Z 1909/1918 19003MPS 4000 BR BKN006    
  FM191200 19003MPS 9999 BKN006 
  FM191500 19003MPS 3500 BR BKN006 
  FM191800 20003MPS 5000 BR BKN008

Детальный прогноз UUYY на 24 часа

AUTOTAF.ME UUYY 190800Z 1909/2009 19003MPS 4000 BR BKN006 TXM16/2009Z TNM18/1909Z  
  FM191200 19003MPS 9999 BKN006 
  FM191500 19003MPS 3500 BR BKN006 
  FM191800 20003MPS 5000 BR BKN008 
  BECMG 1919/1921 4500  
  FM200000 20003MPS 9999 BKN008  
  BECMG 2004/2006 -SN

Подробный табличный прогноз

Время (UTC) miniAUTOTAF на 3 ч WX FZLVL
M AGL
ICE TURB Т
(°С)
Тd
(°С)
f(%) QNH
(гПа)
WIND/T
06 19003MPS 9999 BKN007 SFC MOD FL20/FL110 -20 -23 78 1017 ...
09 19003MPS 4000 BR BKN006 BR SFC MOD FL20/FL30 -18 -21 75 1016 ...
12 19003MPS 9999 BKN006 SFC MOD FL20/FL30 -18 -21 79 1015 ...
15 19003MPS 3500 BR BKN006 BR SFC MOD FL20/FL90 -17 -20 81 1014 ...
18 20003MPS 5000 BR BKN008 BR SFC MOD FL20/FL120 -17 -20 80 1013 ...
21 20003MPS 4500 BR OVC008 BR SFC MOD FL20/FL30 -17 -20 80 1012 ...
20.01.2021
00 20003MPS 9999 BKN008 SFC MOD FL20/FL90 -17 -19 80 1012 ...
03 20003MPS 9999 BKN008 SFC MOD FL20/FL120 -17 -19 80 1010 ...
06 20003MPS 9999 -SN BKN008 -SN SFC MOD FL20/FL30 -17 -19 81 1010 ...
09 22003MPS 9999 -SN OVC009 -SN SFC FBL FL20/FL90 -16 -19 79 1008 ...
12 VRB02MPS 9999 -SN OVC008 -SN SFC MOD FL20/FL30 -15 -18 81 1008 ...
15 VRB02MPS 5000 BR OVC006 BR SFC FBL FL20/FL40 -15 -17 84 1008 ...
18 27003MPS 5000 -SN BR OVC006 -SN BR SFC FBL FL20/FL50 -14 -16 85 1008 ...
21 VRB02MPS 1000 BR OVC003 BR SFC MOD FL20/FL40 -13 -15 85 1009 ...
21.01.2021
00 VRB02MPS 1000 BR BKN003 BR SFC MOD FL20/FL40 -13 -15 84 1009 ...
03 VRB02MPS 1000 BR BKN003 BR SFC MOD FL20/FL50 -14 -16 83 1009 ...


Широта 61.64696°, долгота 50.84512°, высота 103 м абс.
Средняя высота рельефа местности 144 м абс.
Прогнозы обновляются четыре раза в сутки: в 02, 08, 14, 20 ч всемирного времени.


Выбрать прогноз по другой модели Сыктывкар
Онлайн-сводка гроз по Сыктывкар (для РФ и ближнего зарубежья)
Карта фактических гроз в окрестностях Сыктывкар
Динамические прогностические карты (ventusky.com)
Прогностическая карта высоты нижней границы облаков по Сыктывкар (windy.com)
Выбрать другой город

Прогноз предназначен для личного научно-познавательного использования частными лицами
и не предназначен для принятия важных решений и выполнения реальных полётов воздушных судов

При копировании или ином использовании любых материалов данного сайта ссылка на © meteocenter.asia обязательна.

0.54/1